NCAR-RAP Real-Time Weather Data

Output produced by METARs form (28 March 2015  18:45 UTC)
found at http://weather.rap.ucar.edu/surface/
 
Conditions at: KALB observed 28 March 2015  18:06 UTC
Temperature: -2.2°C (28°F)
Dewpoint: -6.1°C (21°F) [RH = 75%]
Pressure (altimeter): 29.92 inches Hg (1013.3 mb)
Winds: from the NNW (330 degrees) at 9 MPH (8 knots; 4.2 m/s)
Visibility: 2.00 miles (3.22 km)
Ceiling: 2100 feet AGL
Clouds: broken clouds at 2100 feet AGL
overcast cloud deck at 2500 feet AGL
Present Weather: -SN  (light snow)
KALB 281806Z 33008KT 2SM -SN BKN021 OVC025 M02/M06 A2992 RMK AO2 P0000 T10221061

Conditions at: KALB observed 28 March 2015  17:51 UTC
Temperature: -2.2°C (28°F)
Dewpoint: -6.7°C (20°F) [RH = 71%]
Pressure (altimeter): 29.92 inches Hg (1013.3 mb)
[Sea-level pressure: 1013.5 mb]
Winds: from the NNW (330 degrees) at 10 MPH (9 knots; 4.7 m/s)
Visibility: 1.50 miles (2.41 km)
Ceiling: 2500 feet AGL
Clouds: scattered clouds at 1900 feet AGL
overcast cloud deck at 2500 feet AGL
Present Weather: -SN  (light snow)
KALB 281751Z 33009KT 1 1/2SM -SN SCT019 OVC025 M02/M07 A2992 RMK AO2 SFC VIS 2 1/2 SLP135 4/001 P0001 60005 T10221067 11022 21039 58004

Conditions at: KALB observed 28 March 2015  17:29 UTC
Temperature: -2.8°C (27°F)
Dewpoint: -6.1°C (21°F) [RH = 78%]
Pressure (altimeter): 29.93 inches Hg (1013.6 mb)
Winds: from the NW (310 degrees) at 9 MPH (8 knots; 4.2 m/s)
Visibility: 1.00 miles (1.61 km)
Ceiling: 1900 feet AGL
Clouds: few clouds at 1200 feet AGL
overcast cloud deck at 1900 feet AGL
Present Weather: -SN  (light snow)
KALB 281729Z 31008KT 1SM R01/5500VP6000FT -SN FEW012 OVC019 M03/M06 A2993 RMK AO2 SFC VIS 1 1/4 P0001 T10281061

Conditions at: KALB observed 28 March 2015  16:51 UTC
Temperature: -3.3°C (26°F)
Dewpoint: -6.1°C (21°F) [RH = 81%]
Pressure (altimeter): 29.93 inches Hg (1013.6 mb)
[Sea-level pressure: 1013.8 mb]
Winds: from the NW (320 degrees) at 12 MPH (10 knots; 5.2 m/s)
Visibility: 0.75 miles (1.21 km)
Ceiling: 1200 feet AGL
Clouds: broken clouds at 1200 feet AGL
broken clouds at 1800 feet AGL
overcast cloud deck at 2300 feet AGL
Present Weather: -SN  (light snow)
KALB 281651Z 32010KT 3/4SM R01/2600V4000FT -SN BKN012 BKN018 OVC023 M03/M06 A2993 RMK AO2 SLP138 P0002 T10331061

Conditions at: KALB observed 28 March 2015  16:24 UTC
Temperature: -3.3°C (26°F)
Dewpoint: -6.1°C (21°F) [RH = 81%]
Pressure (altimeter): 29.93 inches Hg (1013.6 mb)
Winds: from the NW (320 degrees) at 10 MPH (9 knots; 4.7 m/s)
Visibility: 0.75 miles (1.21 km)
Ceiling: 1400 feet AGL
Clouds: broken clouds at 1400 feet AGL
overcast cloud deck at 2000 feet AGL
Present Weather: -SN  (light snow)
KALB 281624Z 32009KT 3/4SM R01/3500V5000FT -SN BKN014 OVC020 M03/M06 A2993 RMK AO2 P0001 T10331061

Conditions at: KALB observed 28 March 2015  15:51 UTC
Temperature: -3.9°C (25°F)
Dewpoint: -6.7°C (20°F) [RH = 81%]
Pressure (altimeter): 29.94 inches Hg (1014.0 mb)
[Sea-level pressure: 1014.1 mb]
Winds: from the NNW (330 degrees) at 10 MPH (9 knots; 4.7 m/s)
Visibility: 0.75 miles (1.21 km)
Ceiling: 1500 feet AGL
Clouds: scattered clouds at 1000 feet AGL
overcast cloud deck at 1500 feet AGL
Present Weather: -SN  (light snow)
KALB 281551Z 33009KT 3/4SM R01/4500V5500FT -SN SCT010 OVC015 M04/M07 A2994 RMK AO2 SFC VIS 1 SLP141 SCT V BKN P0001 T10391067

Conditions at: KALB observed 28 March 2015  14:51 UTC
Temperature: -3.3°C (26°F)
Dewpoint: -6.7°C (20°F) [RH = 77%]
Pressure (altimeter): 29.93 inches Hg (1013.6 mb)
[Sea-level pressure: 1013.9 mb]
Winds: from the N (360 degrees) at 10 MPH (9 knots; 4.7 m/s)
Visibility: 0.75 miles (1.21 km)
Ceiling: 1500 feet AGL
Clouds: broken clouds at 1500 feet AGL
overcast cloud deck at 2300 feet AGL
Present Weather: -SN  (light snow)
KALB 281451Z 36009KT 3/4SM R01/4500VP6000FT -SN BKN015 OVC023 M03/M07 A2993 RMK AO2 SFC VIS 1 SLP139 P0001 60001 T10331067 53018

Conditions at: KALB observed 28 March 2015  14:30 UTC
Temperature: -2.8°C (27°F)
Dewpoint: -6.7°C (20°F) [RH = 74%]
Pressure (altimeter): 29.93 inches Hg (1013.6 mb)
Winds: from the N (350 degrees) at 8 MPH (7 knots; 3.6 m/s)
Visibility: 0.75 miles (1.21 km)
Ceiling: 2300 feet AGL
Clouds: scattered clouds at 1600 feet AGL
overcast cloud deck at 2300 feet AGL
Present Weather: -SN  (light snow)
KALB 281430Z 35007KT 3/4SM R01/3500VP6000FT -SN SCT016 OVC023 M03/M07 A2993 RMK AO2 SFC VIS 1 P0001 T10281067

Conditions at: KALB observed 28 March 2015  14:06 UTC
Temperature: -2.8°C (27°F)
Dewpoint: -7.2°C (19°F) [RH = 72%]
Pressure (altimeter): 29.92 inches Hg (1013.3 mb)
Winds: from the N (10 degrees) at 10 MPH (9 knots; 4.7 m/s)
Visibility: 1.50 miles (2.41 km)
Ceiling: 2000 feet AGL
Clouds: broken clouds at 2000 feet AGL
overcast cloud deck at 2800 feet AGL
Present Weather: -SN  (light snow)
KALB 281406Z 01009KT 1 1/2SM -SN BKN020 OVC028 M03/M07 A2992 RMK AO2 P0000 T10281072

Conditions at: KALB observed 28 March 2015  13:51 UTC
Temperature: -2.8°C (27°F)
Dewpoint: -6.7°C (20°F) [RH = 74%]
Pressure (altimeter): 29.91 inches Hg (1013.0 mb)
[Sea-level pressure: 1013.3 mb]
Winds: from the N (360 degrees) at 9 MPH (8 knots; 4.2 m/s)
Visibility: 2.00 miles (3.22 km)
Ceiling: 1800 feet AGL
Clouds: overcast cloud deck at 1800 feet AGL
Present Weather: -SN  (light snow)
KALB 281351Z 36008KT 2SM -SN OVC018 M03/M07 A2991 RMK AO2 SFC VIS 3 SLP133 P0000 T10281067

Conditions at: KALB observed 28 March 2015  12:51 UTC
Temperature: -2.8°C (27°F)
Dewpoint: -6.7°C (20°F) [RH = 74%]
Pressure (altimeter): 29.90 inches Hg (1012.6 mb)
[Sea-level pressure: 1012.6 mb]
Winds: from the NW (320 degrees) at 12 MPH (10 knots; 5.2 m/s)
Visibility: 10 or more miles (16+ km)
Ceiling: 1500 feet AGL
Clouds: broken clouds at 1500 feet AGL
overcast cloud deck at 2000 feet AGL
Present Weather: -SN  (light snow)
KALB 281251Z 32010KT 10SM -SN BKN015 OVC020 M03/M07 A2990 RMK AO2 SLP126 P0000 T10281067

Conditions at: KALB observed 28 March 2015  11:51 UTC
Temperature: -2.8°C (27°F)
Dewpoint: -6.7°C (20°F) [RH = 74%]
Pressure (altimeter): 29.88 inches Hg (1011.9 mb)
[Sea-level pressure: 1012.1 mb]
Winds: from the NW (320 degrees) at 9 MPH (8 knots; 4.2 m/s)
Visibility: 8 miles (13 km)
Ceiling: 1600 feet AGL
Clouds: overcast cloud deck at 1600 feet AGL
Present Weather: -SN  (light snow)
KALB 281151Z 32008KT 8SM -SN OVC016 M03/M07 A2988 RMK AO2 SLP121 4/001 P0000 60000 T10281067 11006 21028 53013

Conditions at: KALB observed 28 March 2015  10:51 UTC
Temperature: -2.2°C (28°F)
Dewpoint: -6.7°C (20°F) [RH = 71%]
Pressure (altimeter): 29.86 inches Hg (1011.3 mb)
[Sea-level pressure: 1011.3 mb]
Winds: from the NNW (330 degrees) at 12 MPH (10 knots; 5.2 m/s)
Visibility: 9 miles (14 km)
Ceiling: 1800 feet AGL
Clouds: overcast cloud deck at 1800 feet AGL
Present Weather: -SN  (light snow)
KALB 281051Z 33010KT 9SM -SN OVC018 M02/M07 A2986 RMK AO2 SLP113 P0000 T10221067

Conditions at: KALB observed 28 March 2015  09:51 UTC
Temperature: -2.2°C (28°F)
Dewpoint: -6.1°C (21°F) [RH = 75%]
Pressure (altimeter): 29.85 inches Hg (1010.9 mb)
[Sea-level pressure: 1011.0 mb]
Winds: from the WNW (300 degrees) at 8 MPH (7 knots; 3.6 m/s)
Visibility: 8 miles (13 km)
Ceiling: 2100 feet AGL
Clouds: overcast cloud deck at 2100 feet AGL
Present Weather: -SN  (light snow)
KALB 280951Z 30007KT 8SM -SN OVC021 M02/M06 A2985 RMK AO2 SLP110 OCNL DRSN P0000 T10221061

Conditions at: KALB observed 28 March 2015  08:51 UTC
Temperature: -1.7°C (29°F)
Dewpoint: -6.1°C (21°F) [RH = 72%]
Pressure (altimeter): 29.84 inches Hg (1010.6 mb)
[Sea-level pressure: 1010.7 mb]
Winds: from the NW (310 degrees) at 9 MPH (8 knots; 4.2 m/s)
Visibility: 9 miles (14 km)
Ceiling: 2200 feet AGL
Clouds: overcast cloud deck at 2200 feet AGL
Present Weather: -SN  (light snow)
KALB 280851Z 31008KT 9SM -SN OVC022 M02/M06 A2984 RMK AO2 SLP107 P0000 60000 T10171061 55007

Conditions at: KALB observed 28 March 2015  07:51 UTC
Temperature: -1.1°C (30°F)
Dewpoint: -5.6°C (22°F) [RH = 71%]
Pressure (altimeter): 29.83 inches Hg (1010.2 mb)
[Sea-level pressure: 1010.3 mb]
Winds: from the NW (310 degrees) at 13 MPH (11 knots; 5.7 m/s)
Visibility: 8 miles (13 km)
Ceiling: 2400 feet AGL
Clouds: overcast cloud deck at 2400 feet AGL
Present Weather: -SN  (light snow)
KALB 280751Z 31011KT 8SM -SN OVC024 M01/M06 A2983 RMK AO2 SLP103 P0000 T10111056

Conditions at: KALB observed 28 March 2015  06:51 UTC
Temperature: -1.1°C (30°F)
Dewpoint: -3.9°C (25°F) [RH = 81%]
Pressure (altimeter): 29.85 inches Hg (1010.9 mb)
[Sea-level pressure: 1011.0 mb]
Winds: from the NW (320 degrees) at 9 MPH (8 knots; 4.2 m/s)
Visibility: 8 miles (13 km)
Ceiling: 2500 feet AGL
Clouds: broken clouds at 2500 feet AGL
overcast cloud deck at 3000 feet AGL
Present Weather: -SN  (light snow)
KALB 280651Z 32008KT 8SM -SN BKN025 OVC030 M01/M04 A2985 RMK AO2 SLP110 P0000 T10111039